sensor_id;sensor_type;location;lat;lon;timestamp;P1;durP1;ratioP1;P2;durP2;ratioP2
22318;SDS011;11327;52.334;9.506;2022-09-01T00:01:11;1.92;;;0.95;;
22318;SDS011;11327;52.334;9.506;2022-09-01T00:04:37;1.82;;;0.90;;
22318;SDS011;11327;52.334;9.506;2022-09-01T00:07:58;2.98;;;0.82;;
22318;SDS011;11327;52.334;9.506;2022-09-01T00:11:20;1.77;;;0.70;;
22318;SDS011;11327;52.334;9.506;2022-09-01T00:14:42;2.12;;;0.90;;
22318;SDS011;11327;52.334;9.506;2022-09-01T00:18:04;2.50;;;1.00;;
22318;SDS011;11327;52.334;9.506;2022-09-01T00:21:26;3.37;;;0.80;;
22318;SDS011;11327;52.334;9.506;2022-09-01T00:24:49;0.95;;;0.68;;
22318;SDS011;11327;52.334;9.506;2022-09-01T00:28:10;1.90;;;0.70;;
22318;SDS011;11327;52.334;9.506;2022-09-01T00:31:31;1.40;;;0.90;;
22318;SDS011;11327;52.334;9.506;2022-09-01T00:34:53;1.00;;;0.78;;
22318;SDS011;11327;52.334;9.506;2022-09-01T00:38:14;1.67;;;0.80;;
22318;SDS011;11327;52.334;9.506;2022-09-01T00:41:36;1.67;;;1.10;;
22318;SDS011;11327;52.334;9.506;2022-09-01T00:44:59;1.77;;;0.72;;
22318;SDS011;11327;52.334;9.506;2022-09-01T00:48:20;1.42;;;0.90;;
22318;SDS011;11327;52.334;9.506;2022-09-01T00:51:42;1.60;;;0.80;;
22318;SDS011;11327;52.334;9.506;2022-09-01T00:55:09;1.45;;;0.60;;
22318;SDS011;11327;52.334;9.506;2022-09-01T00:58:32;1.37;;;0.82;;
22318;SDS011;11327;52.334;9.506;2022-09-01T01:01:55;3.22;;;0.85;;
22318;SDS011;11327;52.334;9.506;2022-09-01T01:05:17;1.05;;;0.72;;
22318;SDS011;11327;52.334;9.506;2022-09-01T01:08:41;1.77;;;0.82;;
22318;SDS011;11327;52.334;9.506;2022-09-01T01:12:06;2.20;;;0.90;;
22318;SDS011;11327;52.334;9.506;2022-09-01T01:15:30;1.70;;;0.70;;
22318;SDS011;11327;52.334;9.506;2022-09-01T01:18:51;1.50;;;0.75;;
22318;SDS011;11327;52.334;9.506;2022-09-01T01:22:16;2.30;;;0.90;;
22318;SDS011;11327;52.334;9.506;2022-09-01T01:25:57;4.47;;;0.90;;
22318;SDS011;11327;52.334;9.506;2022-09-01T01:29:19;2.30;;;1.00;;
22318;SDS011;11327;52.334;9.506;2022-09-01T01:32:44;1.57;;;0.80;;
22318;SDS011;11327;52.334;9.506;2022-09-01T01:36:08;1.25;;;0.98;;
22318;SDS011;11327;52.334;9.506;2022-09-01T01:39:37;2.08;;;0.90;;
22318;SDS011;11327;52.334;9.506;2022-09-01T01:43:00;1.02;;;0.80;;
22318;SDS011;11327;52.334;9.506;2022-09-01T01:46:21;1.25;;;0.85;;
22318;SDS011;11327;52.334;9.506;2022-09-01T01:49:43;1.80;;;0.72;;
22318;SDS011;11327;52.334;9.506;2022-09-01T01:53:05;2.37;;;1.07;;
22318;SDS011;11327;52.334;9.506;2022-09-01T01:56:27;1.25;;;0.75;;
22318;SDS011;11327;52.334;9.506;2022-09-01T01:59:48;2.02;;;0.80;;
22318;SDS011;11327;52.334;9.506;2022-09-01T02:03:09;1.25;;;0.88;;
22318;SDS011;11327;52.334;9.506;2022-09-01T02:06:32;1.50;;;0.80;;
22318;SDS011;11327;52.334;9.506;2022-09-01T02:09:54;1.42;;;0.90;;
22318;SDS011;11327;52.334;9.506;2022-09-01T02:13:17;2.10;;;0.93;;
22318;SDS011;11327;52.334;9.506;2022-09-01T02:16:40;2.15;;;1.20;;
22318;SDS011;11327;52.334;9.506;2022-09-01T02:20:02;2.60;;;0.90;;
22318;SDS011;11327;52.334;9.506;2022-09-01T02:23:23;5.05;;;1.10;;
22318;SDS011;11327;52.334;9.506;2022-09-01T02:26:44;1.35;;;0.90;;
22318;SDS011;11327;52.334;9.506;2022-09-01T02:30:07;1.30;;;0.90;;
22318;SDS011;11327;52.334;9.506;2022-09-01T02:33:30;2.80;;;1.55;;
22318;SDS011;11327;52.334;9.506;2022-09-01T02:36:52;2.25;;;1.00;;
22318;SDS011;11327;52.334;9.506;2022-09-01T02:40:14;1.40;;;0.90;;
22318;SDS011;11327;52.334;9.506;2022-09-01T02:43:35;1.37;;;0.85;;
22318;SDS011;11327;52.334;9.506;2022-09-01T02:46:56;2.35;;;1.07;;
22318;SDS011;11327;52.334;9.506;2022-09-01T02:50:18;2.02;;;1.10;;
22318;SDS011;11327;52.334;9.506;2022-09-01T02:53:40;1.30;;;1.00;;
22318;SDS011;11327;52.334;9.506;2022-09-01T02:57:02;1.35;;;0.78;;
22318;SDS011;11327;52.334;9.506;2022-09-01T03:00:23;2.42;;;1.02;;
22318;SDS011;11327;52.334;9.506;2022-09-01T03:03:54;1.10;;;0.98;;
22318;SDS011;11327;52.334;9.506;2022-09-01T03:07:17;1.90;;;0.93;;
22318;SDS011;11327;52.334;9.506;2022-09-01T03:10:41;1.10;;;1.00;;
22318;SDS011;11327;52.334;9.506;2022-09-01T03:14:03;1.72;;;0.95;;
22318;SDS011;11327;52.334;9.506;2022-09-01T03:17:25;1.15;;;0.88;;
22318;SDS011;11327;52.334;9.506;2022-09-01T03:20:46;1.42;;;0.90;;
22318;SDS011;11327;52.334;9.506;2022-09-01T03:24:08;1.85;;;1.20;;
22318;SDS011;11327;52.334;9.506;2022-09-01T03:27:32;1.60;;;1.02;;
22318;SDS011;11327;52.334;9.506;2022-09-01T03:30:54;1.20;;;1.02;;
22318;SDS011;11327;52.334;9.506;2022-09-01T03:34:16;4.00;;;1.20;;
22318;SDS011;11327;52.334;9.506;2022-09-01T03:37:39;1.85;;;1.20;;
22318;SDS011;11327;52.334;9.506;2022-09-01T03:41:03;2.02;;;1.67;;
22318;SDS011;11327;52.334;9.506;2022-09-01T03:44:25;1.62;;;1.10;;
22318;SDS011;11327;52.334;9.506;2022-09-01T03:47:47;2.60;;;1.20;;
22318;SDS011;11327;52.334;9.506;2022-09-01T03:51:08;2.33;;;1.00;;
22318;SDS011;11327;52.334;9.506;2022-09-01T03:54:29;2.42;;;1.20;;
22318;SDS011;11327;52.334;9.506;2022-09-01T03:57:52;2.02;;;1.22;;
22318;SDS011;11327;52.334;9.506;2022-09-01T04:01:15;2.00;;;1.10;;
22318;SDS011;11327;52.334;9.506;2022-09-01T04:04:36;1.92;;;1.30;;
22318;SDS011;11327;52.334;9.506;2022-09-01T04:07:58;1.52;;;1.20;;
22318;SDS011;11327;52.334;9.506;2022-09-01T04:11:22;2.02;;;1.10;;
22318;SDS011;11327;52.334;9.506;2022-09-01T04:14:43;1.95;;;1.20;;
22318;SDS011;11327;52.334;9.506;2022-09-01T04:18:06;1.67;;;1.22;;
22318;SDS011;11327;52.334;9.506;2022-09-01T04:21:31;2.08;;;1.30;;
22318;SDS011;11327;52.334;9.506;2022-09-01T04:24:52;2.17;;;1.30;;
22318;SDS011;11327;52.334;9.506;2022-09-01T04:28:13;2.27;;;1.25;;
22318;SDS011;11327;52.334;9.506;2022-09-01T04:31:36;1.77;;;1.22;;
22318;SDS011;11327;52.334;9.506;2022-09-01T04:34:59;1.72;;;1.37;;
22318;SDS011;11327;52.334;9.506;2022-09-01T04:38:22;1.82;;;1.27;;
22318;SDS011;11327;52.334;9.506;2022-09-01T04:41:44;2.05;;;1.10;;
22318;SDS011;11327;52.334;9.506;2022-09-01T04:45:06;1.77;;;1.50;;
22318;SDS011;11327;52.334;9.506;2022-09-01T04:48:30;1.72;;;1.40;;
22318;SDS011;11327;52.334;9.506;2022-09-01T04:51:51;2.30;;;1.50;;
22318;SDS011;11327;52.334;9.506;2022-09-01T04:55:13;1.98;;;1.37;;
22318;SDS011;11327;52.334;9.506;2022-09-01T04:58:37;4.25;;;1.60;;
22318;SDS011;11327;52.334;9.506;2022-09-01T05:01:58;3.35;;;1.60;;
22318;SDS011;11327;52.334;9.506;2022-09-01T05:05:21;2.62;;;1.70;;
22318;SDS011;11327;52.334;9.506;2022-09-01T05:08:43;2.08;;;1.52;;
22318;SDS011;11327;52.334;9.506;2022-09-01T05:12:05;5.55;;;1.50;;
22318;SDS011;11327;52.334;9.506;2022-09-01T05:15:35;2.70;;;1.50;;
22318;SDS011;11327;52.334;9.506;2022-09-01T05:18:57;2.52;;;1.60;;
22318;SDS011;11327;52.334;9.506;2022-09-01T05:22:20;3.25;;;1.40;;
22318;SDS011;11327;52.334;9.506;2022-09-01T05:25:42;1.90;;;1.50;;
22318;SDS011;11327;52.334;9.506;2022-09-01T05:29:04;2.05;;;1.40;;
22318;SDS011;11327;52.334;9.506;2022-09-01T05:32:27;2.67;;;1.72;;
22318;SDS011;11327;52.334;9.506;2022-09-01T05:35:53;2.47;;;1.77;;
22318;SDS011;11327;52.334;9.506;2022-09-01T05:39:15;3.42;;;1.82;;
22318;SDS011;11327;52.334;9.506;2022-09-01T05:42:36;2.30;;;1.85;;
22318;SDS011;11327;52.334;9.506;2022-09-01T05:45:58;2.47;;;1.70;;
22318;SDS011;11327;52.334;9.506;2022-09-01T05:49:24;1.90;;;1.50;;
22318;SDS011;11327;52.334;9.506;2022-09-01T05:52:47;2.90;;;1.52;;
22318;SDS011;11327;52.334;9.506;2022-09-01T05:56:09;2.95;;;1.82;;
22318;SDS011;11327;52.334;9.506;2022-09-01T05:59:32;3.47;;;1.55;;
22318;SDS011;11327;52.334;9.506;2022-09-01T06:02:53;2.67;;;1.60;;
22318;SDS011;11327;52.334;9.506;2022-09-01T06:06:16;2.10;;;1.60;;
22318;SDS011;11327;52.334;9.506;2022-09-01T06:09:38;3.15;;;1.75;;
22318;SDS011;11327;52.334;9.506;2022-09-01T06:13:01;2.90;;;1.77;;
22318;SDS011;11327;52.334;9.506;2022-09-01T06:16:25;4.05;;;1.77;;
22318;SDS011;11327;52.334;9.506;2022-09-01T06:19:48;2.70;;;1.72;;
22318;SDS011;11327;52.334;9.506;2022-09-01T06:23:09;2.52;;;1.87;;
22318;SDS011;11327;52.334;9.506;2022-09-01T06:26:35;3.05;;;1.80;;
22318;SDS011;11327;52.334;9.506;2022-09-01T06:29:58;2.92;;;1.90;;
22318;SDS011;11327;52.334;9.506;2022-09-01T06:33:19;2.60;;;2.00;;
22318;SDS011;11327;52.334;9.506;2022-09-01T06:36:42;2.80;;;1.80;;
22318;SDS011;11327;52.334;9.506;2022-09-01T06:40:05;2.42;;;2.08;;
22318;SDS011;11327;52.334;9.506;2022-09-01T06:43:29;2.37;;;1.70;;
22318;SDS011;11327;52.334;9.506;2022-09-01T06:46:51;5.90;;;2.27;;
22318;SDS011;11327;52.334;9.506;2022-09-01T06:50:14;12.53;;;3.30;;
22318;SDS011;11327;52.334;9.506;2022-09-01T06:53:36;6.53;;;2.35;;
22318;SDS011;11327;52.334;9.506;2022-09-01T06:56:57;5.55;;;2.40;;
22318;SDS011;11327;52.334;9.506;2022-09-01T07:00:18;4.00;;;2.15;;
22318;SDS011;11327;52.334;9.506;2022-09-01T07:03:43;6.60;;;2.50;;
22318;SDS011;11327;52.334;9.506;2022-09-01T07:07:06;5.50;;;2.22;;
22318;SDS011;11327;52.334;9.506;2022-09-01T07:10:29;4.75;;;2.30;;
22318;SDS011;11327;52.334;9.506;2022-09-01T07:13:51;4.05;;;2.00;;
22318;SDS011;11327;52.334;9.506;2022-09-01T07:17:13;3.10;;;1.90;;
22318;SDS011;11327;52.334;9.506;2022-09-01T07:20:35;3.30;;;2.08;;
22318;SDS011;11327;52.334;9.506;2022-09-01T07:23:58;3.52;;;1.70;;
22318;SDS011;11327;52.334;9.506;2022-09-01T07:27:21;3.42;;;1.77;;
22318;SDS011;11327;52.334;9.506;2022-09-01T07:30:45;3.27;;;1.80;;
22318;SDS011;11327;52.334;9.506;2022-09-01T07:34:09;2.70;;;1.67;;
22318;SDS011;11327;52.334;9.506;2022-09-01T07:37:32;4.67;;;1.87;;
22318;SDS011;11327;52.334;9.506;2022-09-01T07:40:55;2.50;;;2.00;;
22318;SDS011;11327;52.334;9.506;2022-09-01T07:44:17;4.22;;;1.50;;
22318;SDS011;11327;52.334;9.506;2022-09-01T07:47:38;6.80;;;1.92;;
22318;SDS011;11327;52.334;9.506;2022-09-01T07:50:59;2.85;;;1.40;;
22318;SDS011;11327;52.334;9.506;2022-09-01T07:54:20;3.30;;;1.50;;
22318;SDS011;11327;52.334;9.506;2022-09-01T07:57:43;1.98;;;1.20;;
22318;SDS011;11327;52.334;9.506;2022-09-01T08:01:06;3.65;;;1.30;;
22318;SDS011;11327;52.334;9.506;2022-09-01T08:04:28;4.12;;;1.00;;
22318;SDS011;11327;52.334;9.506;2022-09-01T08:07:51;3.90;;;1.20;;
22318;SDS011;11327;52.334;9.506;2022-09-01T08:11:21;1.62;;;1.05;;
22318;SDS011;11327;52.334;9.506;2022-09-01T08:18:00;3.65;;;1.40;;
22318;SDS011;11327;52.334;9.506;2022-09-01T08:21:22;3.02;;;1.10;;
22318;SDS011;11327;52.334;9.506;2022-09-01T08:24:44;3.65;;;1.35;;
22318;SDS011;11327;52.334;9.506;2022-09-01T08:28:06;6.58;;;1.25;;
22318;SDS011;11327;52.334;9.506;2022-09-01T08:31:27;7.00;;;1.20;;
22318;SDS011;11327;52.334;9.506;2022-09-01T08:34:48;1.20;;;0.80;;
22318;SDS011;11327;52.334;9.506;2022-09-01T08:38:09;3.98;;;1.10;;
22318;SDS011;11327;52.334;9.506;2022-09-01T08:41:34;1.32;;;0.75;;
22318;SDS011;11327;52.334;9.506;2022-09-01T08:45:00;1.40;;;0.72;;
22318;SDS011;11327;52.334;9.506;2022-09-01T08:48:39;1.90;;;0.98;;
22318;SDS011;11327;52.334;9.506;2022-09-01T08:55:36;1.82;;;0.82;;
22318;SDS011;11327;52.334;9.506;2022-09-01T08:59:00;1.70;;;1.00;;
22318;SDS011;11327;52.334;9.506;2022-09-01T09:09:46;1.90;;;0.90;;
22318;SDS011;11327;52.334;9.506;2022-09-01T09:16:43;2.05;;;1.00;;
22318;SDS011;11327;52.334;9.506;2022-09-01T09:20:07;5.60;;;1.27;;
22318;SDS011;11327;52.334;9.506;2022-09-01T09:23:30;3.35;;;0.78;;
22318;SDS011;11327;52.334;9.506;2022-09-01T09:26:55;4.28;;;0.68;;
22318;SDS011;11327;52.334;9.506;2022-09-01T09:30:19;5.60;;;0.70;;
22318;SDS011;11327;52.334;9.506;2022-09-01T09:33:45;4.42;;;0.60;;
22318;SDS011;11327;52.334;9.506;2022-09-01T09:37:17;4.60;;;0.60;;
22318;SDS011;11327;52.334;9.506;2022-09-01T09:44:27;2.47;;;0.40;;
22318;SDS011;11327;52.334;9.506;2022-09-01T09:47:52;7.30;;;0.62;;
22318;SDS011;11327;52.334;9.506;2022-09-01T09:51:16;3.00;;;0.50;;
22318;SDS011;11327;52.334;9.506;2022-09-01T09:54:58;3.10;;;0.47;;
22318;SDS011;11327;52.334;9.506;2022-09-01T09:58:30;4.60;;;0.65;;
22318;SDS011;11327;52.334;9.506;2022-09-01T10:01:59;1.40;;;0.45;;
22318;SDS011;11327;52.334;9.506;2022-09-01T10:09:05;0.80;;;0.40;;
22318;SDS011;11327;52.334;9.506;2022-09-01T10:12:37;0.75;;;0.50;;
22318;SDS011;11327;52.334;9.506;2022-09-01T10:16:02;0.70;;;0.40;;
22318;SDS011;11327;52.334;9.506;2022-09-01T10:19:32;1.15;;;0.45;;
22318;SDS011;11327;52.334;9.506;2022-09-01T10:22:54;1.30;;;0.62;;
22318;SDS011;11327;52.334;9.506;2022-09-01T10:26:23;1.05;;;0.47;;
22318;SDS011;11327;52.334;9.506;2022-09-01T10:30:05;0.78;;;0.40;;
22318;SDS011;11327;52.334;9.506;2022-09-01T10:33:28;2.20;;;0.50;;
22318;SDS011;11327;52.334;9.506;2022-09-01T10:36:50;1.00;;;0.47;;
22318;SDS011;11327;52.334;9.506;2022-09-01T10:43:48;0.72;;;0.45;;
22318;SDS011;11327;52.334;9.506;2022-09-01T10:47:32;0.78;;;0.40;;
22318;SDS011;11327;52.334;9.506;2022-09-01T10:50:53;1.92;;;0.30;;
22318;SDS011;11327;52.334;9.506;2022-09-01T10:58:06;0.50;;;0.42;;
22318;SDS011;11327;52.334;9.506;2022-09-01T11:02:09;1.10;;;0.40;;
22318;SDS011;11327;52.334;9.506;2022-09-01T11:15:45;0.62;;;0.33;;
22318;SDS011;11327;52.334;9.506;2022-09-01T11:22:44;1.82;;;0.40;;
22318;SDS011;11327;52.334;9.506;2022-09-01T11:30:07;2.70;;;0.50;;
22318;SDS011;11327;52.334;9.506;2022-09-01T11:37:19;1.10;;;0.37;;
22318;SDS011;11327;52.334;9.506;2022-09-01T11:40:42;2.27;;;0.47;;
22318;SDS011;11327;52.334;9.506;2022-09-01T11:44:09;0.75;;;0.30;;
22318;SDS011;11327;52.334;9.506;2022-09-01T11:47:41;1.42;;;0.40;;
22318;SDS011;11327;52.334;9.506;2022-09-01T11:51:04;1.42;;;0.30;;
22318;SDS011;11327;52.334;9.506;2022-09-01T11:54:26;2.60;;;0.40;;
22318;SDS011;11327;52.334;9.506;2022-09-01T11:57:49;2.20;;;0.40;;
22318;SDS011;11327;52.334;9.506;2022-09-01T12:01:15;0.80;;;0.40;;
22318;SDS011;11327;52.334;9.506;2022-09-01T12:04:34;2.80;;;0.30;;
22318;SDS011;11327;52.334;9.506;2022-09-01T12:07:58;6.00;;;0.53;;
22318;SDS011;11327;52.334;9.506;2022-09-01T12:11:21;1.52;;;0.42;;
22318;SDS011;11327;52.334;9.506;2022-09-01T12:14:54;0.88;;;0.30;;
22318;SDS011;11327;52.334;9.506;2022-09-01T12:18:17;1.98;;;0.30;;
22318;SDS011;11327;52.334;9.506;2022-09-01T12:21:42;0.60;;;0.40;;
22318;SDS011;11327;52.334;9.506;2022-09-01T12:25:03;1.02;;;0.30;;
22318;SDS011;11327;52.334;9.506;2022-09-01T12:28:26;3.40;;;0.50;;
22318;SDS011;11327;52.334;9.506;2022-09-01T12:31:51;4.35;;;0.55;;
22318;SDS011;11327;52.334;9.506;2022-09-01T12:35:19;2.30;;;0.42;;
22318;SDS011;11327;52.334;9.506;2022-09-01T12:38:38;2.10;;;0.50;;
22318;SDS011;11327;52.334;9.506;2022-09-01T12:42:04;0.70;;;0.47;;
22318;SDS011;11327;52.334;9.506;2022-09-01T12:45:43;1.15;;;0.33;;
22318;SDS011;11327;52.334;9.506;2022-09-01T12:49:16;0.50;;;0.40;;
22318;SDS011;11327;52.334;9.506;2022-09-01T12:56:17;2.25;;;0.33;;
22318;SDS011;11327;52.334;9.506;2022-09-01T12:59:43;1.22;;;0.33;;
22318;SDS011;11327;52.334;9.506;2022-09-01T13:06:35;1.47;;;0.35;;
22318;SDS011;11327;52.334;9.506;2022-09-01T13:09:56;0.95;;;0.50;;
22318;SDS011;11327;52.334;9.506;2022-09-01T13:13:17;1.72;;;0.40;;
22318;SDS011;11327;52.334;9.506;2022-09-01T13:16:39;3.33;;;0.50;;
22318;SDS011;11327;52.334;9.506;2022-09-01T13:20:00;2.25;;;0.40;;
22318;SDS011;11327;52.334;9.506;2022-09-01T13:23:21;2.35;;;0.50;;
22318;SDS011;11327;52.334;9.506;2022-09-01T13:26:42;0.90;;;0.33;;
22318;SDS011;11327;52.334;9.506;2022-09-01T13:30:05;0.68;;;0.40;;
22318;SDS011;11327;52.334;9.506;2022-09-01T13:33:27;2.37;;;0.40;;
22318;SDS011;11327;52.334;9.506;2022-09-01T13:36:48;1.17;;;0.30;;
22318;SDS011;11327;52.334;9.506;2022-09-01T13:40:09;0.80;;;0.40;;
22318;SDS011;11327;52.334;9.506;2022-09-01T13:43:32;0.85;;;0.40;;
22318;SDS011;11327;52.334;9.506;2022-09-01T13:46:53;2.05;;;0.50;;
22318;SDS011;11327;52.334;9.506;2022-09-01T13:50:15;2.95;;;0.40;;
22318;SDS011;11327;52.334;9.506;2022-09-01T13:53:38;2.17;;;0.40;;
22318;SDS011;11327;52.334;9.506;2022-09-01T13:56:59;3.95;;;0.40;;
22318;SDS011;11327;52.334;9.506;2022-09-01T14:00:25;1.98;;;0.40;;
22318;SDS011;11327;52.334;9.506;2022-09-01T14:03:48;2.10;;;0.42;;
22318;SDS011;11327;52.334;9.506;2022-09-01T14:07:10;2.77;;;0.40;;
22318;SDS011;11327;52.334;9.506;2022-09-01T14:10:31;1.75;;;0.37;;
22318;SDS011;11327;52.334;9.506;2022-09-01T14:13:52;1.05;;;0.50;;
22318;SDS011;11327;52.334;9.506;2022-09-01T14:17:13;1.75;;;0.40;;
22318;SDS011;11327;52.334;9.506;2022-09-01T14:20:37;1.55;;;0.40;;
22318;SDS011;11327;52.334;9.506;2022-09-01T14:24:01;0.65;;;0.30;;
22318;SDS011;11327;52.334;9.506;2022-09-01T14:27:22;0.72;;;0.50;;
22318;SDS011;11327;52.334;9.506;2022-09-01T14:30:43;2.55;;;0.50;;
22318;SDS011;11327;52.334;9.506;2022-09-01T14:34:05;0.82;;;0.30;;
22318;SDS011;11327;52.334;9.506;2022-09-01T14:37:26;0.60;;;0.40;;
22318;SDS011;11327;52.334;9.506;2022-09-01T14:40:47;1.62;;;0.60;;
22318;SDS011;11327;52.334;9.506;2022-09-01T14:44:10;2.83;;;0.40;;
22318;SDS011;11327;52.334;9.506;2022-09-01T14:47:31;1.00;;;0.33;;
22318;SDS011;11327;52.334;9.506;2022-09-01T14:50:52;0.60;;;0.40;;
22318;SDS011;11327;52.334;9.506;2022-09-01T14:54:13;1.60;;;0.33;;
22318;SDS011;11327;52.334;9.506;2022-09-01T14:57:34;1.22;;;0.30;;
22318;SDS011;11327;52.334;9.506;2022-09-01T15:00:55;2.08;;;0.50;;
22318;SDS011;11327;52.334;9.506;2022-09-01T15:04:18;0.50;;;0.30;;
22318;SDS011;11327;52.334;9.506;2022-09-01T15:07:39;0.57;;;0.30;;
22318;SDS011;11327;52.334;9.506;2022-09-01T15:11:01;0.78;;;0.30;;
22318;SDS011;11327;52.334;9.506;2022-09-01T15:14:22;1.65;;;0.50;;
22318;SDS011;11327;52.334;9.506;2022-09-01T15:17:43;2.15;;;0.40;;
22318;SDS011;11327;52.334;9.506;2022-09-01T15:21:04;1.22;;;0.50;;
22318;SDS011;11327;52.334;9.506;2022-09-01T15:24:25;1.07;;;0.30;;
22318;SDS011;11327;52.334;9.506;2022-09-01T15:27:46;0.60;;;0.37;;
22318;SDS011;11327;52.334;9.506;2022-09-01T15:31:07;1.25;;;0.30;;
22318;SDS011;11327;52.334;9.506;2022-09-01T15:34:30;1.37;;;0.30;;
22318;SDS011;11327;52.334;9.506;2022-09-01T15:37:51;2.42;;;0.40;;
22318;SDS011;11327;52.334;9.506;2022-09-01T15:41:15;1.92;;;0.30;;
22318;SDS011;11327;52.334;9.506;2022-09-01T15:44:37;1.47;;;0.40;;
22318;SDS011;11327;52.334;9.506;2022-09-01T15:47:58;2.00;;;0.40;;
22318;SDS011;11327;52.334;9.506;2022-09-01T15:51:26;1.27;;;0.40;;
22318;SDS011;11327;52.334;9.506;2022-09-01T15:54:47;1.00;;;0.37;;
22318;SDS011;11327;52.334;9.506;2022-09-01T15:58:08;0.53;;;0.30;;
22318;SDS011;11327;52.334;9.506;2022-09-01T16:01:31;1.85;;;0.30;;
22318;SDS011;11327;52.334;9.506;2022-09-01T16:04:55;0.85;;;0.40;;
22318;SDS011;11327;52.334;9.506;2022-09-01T16:08:16;1.12;;;0.50;;
22318;SDS011;11327;52.334;9.506;2022-09-01T16:11:39;1.35;;;0.30;;
22318;SDS011;11327;52.334;9.506;2022-09-01T16:15:00;1.07;;;0.30;;
22318;SDS011;11327;52.334;9.506;2022-09-01T16:18:27;1.60;;;0.37;;
22318;SDS011;11327;52.334;9.506;2022-09-01T16:25:33;0.80;;;0.42;;
22318;SDS011;11327;52.334;9.506;2022-09-01T16:28:55;3.52;;;0.40;;
22318;SDS011;11327;52.334;9.506;2022-09-01T16:32:17;1.20;;;0.25;;
22318;SDS011;11327;52.334;9.506;2022-09-01T16:35:43;0.45;;;0.33;;
22318;SDS011;11327;52.334;9.506;2022-09-01T16:43:07;4.47;;;0.70;;
22318;SDS011;11327;52.334;9.506;2022-09-01T16:46:32;1.07;;;0.28;;
22318;SDS011;11327;52.334;9.506;2022-09-01T16:50:38;1.17;;;0.30;;
22318;SDS011;11327;52.334;9.506;2022-09-01T17:08:06;0.82;;;0.42;;
22318;SDS011;11327;52.334;9.506;2022-09-01T17:11:31;0.60;;;0.30;;
22318;SDS011;11327;52.334;9.506;2022-09-01T17:15:00;1.27;;;0.40;;
22318;SDS011;11327;52.334;9.506;2022-09-01T17:18:42;1.72;;;0.33;;
22318;SDS011;11327;52.334;9.506;2022-09-01T17:22:09;0.65;;;0.30;;
22318;SDS011;11327;52.334;9.506;2022-09-01T17:25:32;0.80;;;0.33;;
22318;SDS011;11327;52.334;9.506;2022-09-01T17:29:04;1.12;;;0.53;;
22318;SDS011;11327;52.334;9.506;2022-09-01T17:36:10;0.88;;;0.40;;
22318;SDS011;11327;52.334;9.506;2022-09-01T17:43:21;1.85;;;0.47;;
22318;SDS011;11327;52.334;9.506;2022-09-01T17:46:49;0.70;;;0.42;;
22318;SDS011;11327;52.334;9.506;2022-09-01T17:57:28;1.75;;;0.50;;
22318;SDS011;11327;52.334;9.506;2022-09-01T18:01:00;1.40;;;0.40;;
22318;SDS011;11327;52.334;9.506;2022-09-01T18:15:16;1.85;;;0.40;;
22318;SDS011;11327;52.334;9.506;2022-09-01T18:18:40;6.83;;;0.60;;
22318;SDS011;11327;52.334;9.506;2022-09-01T18:22:04;1.00;;;0.40;;
22318;SDS011;11327;52.334;9.506;2022-09-01T18:25:34;1.17;;;0.33;;
22318;SDS011;11327;52.334;9.506;2022-09-01T18:28:58;1.35;;;0.60;;
22318;SDS011;11327;52.334;9.506;2022-09-01T18:40:03;1.50;;;0.50;;
22318;SDS011;11327;52.334;9.506;2022-09-01T18:54:18;1.10;;;0.30;;
22318;SDS011;11327;52.334;9.506;2022-09-01T18:57:37;0.45;;;0.37;;
22318;SDS011;11327;52.334;9.506;2022-09-01T19:01:02;1.45;;;0.35;;
22318;SDS011;11327;52.334;9.506;2022-09-01T19:04:30;1.45;;;0.47;;
22318;SDS011;11327;52.334;9.506;2022-09-01T19:15:36;1.02;;;0.40;;
22318;SDS011;11327;52.334;9.506;2022-09-01T19:26:14;1.77;;;0.60;;
22318;SDS011;11327;52.334;9.506;2022-09-01T19:29:37;1.62;;;0.50;;
22318;SDS011;11327;52.334;9.506;2022-09-01T19:33:03;1.37;;;0.60;;
22318;SDS011;11327;52.334;9.506;2022-09-01T19:39:59;1.40;;;0.72;;
22318;SDS011;11327;52.334;9.506;2022-09-01T19:43:20;1.62;;;1.00;;
22318;SDS011;11327;52.334;9.506;2022-09-01T19:46:51;1.15;;;0.70;;
22318;SDS011;11327;52.334;9.506;2022-09-01T19:53:50;1.52;;;0.53;;
22318;SDS011;11327;52.334;9.506;2022-09-01T19:57:33;0.95;;;0.50;;
22318;SDS011;11327;52.334;9.506;2022-09-01T20:00:59;0.80;;;0.45;;
22318;SDS011;11327;52.334;9.506;2022-09-01T20:25:40;3.15;;;0.80;;
22318;SDS011;11327;52.334;9.506;2022-09-01T20:40:24;1.40;;;0.78;;
22318;SDS011;11327;52.334;9.506;2022-09-01T20:43:59;1.85;;;0.53;;
22318;SDS011;11327;52.334;9.506;2022-09-01T20:47:24;1.50;;;0.60;;
22318;SDS011;11327;52.334;9.506;2022-09-01T20:50:52;2.17;;;0.60;;
22318;SDS011;11327;52.334;9.506;2022-09-01T21:01:31;1.70;;;0.50;;
22318;SDS011;11327;52.334;9.506;2022-09-01T21:05:13;1.15;;;0.60;;
22318;SDS011;11327;52.334;9.506;2022-09-01T21:08:57;1.05;;;0.60;;
22318;SDS011;11327;52.334;9.506;2022-09-01T21:12:37;2.05;;;0.60;;
22318;SDS011;11327;52.334;9.506;2022-09-01T21:23:07;1.72;;;0.80;;
22318;SDS011;11327;52.334;9.506;2022-09-01T21:26:28;1.62;;;0.57;;
22318;SDS011;11327;52.334;9.506;2022-09-01T21:29:54;1.67;;;0.78;;
22318;SDS011;11327;52.334;9.506;2022-09-01T21:33:20;0.65;;;0.40;;
22318;SDS011;11327;52.334;9.506;2022-09-01T21:36:42;1.82;;;0.88;;
22318;SDS011;11327;52.334;9.506;2022-09-01T21:40:03;1.67;;;0.55;;
22318;SDS011;11327;52.334;9.506;2022-09-01T21:43:31;1.22;;;0.50;;
22318;SDS011;11327;52.334;9.506;2022-09-01T21:46:53;1.45;;;0.50;;
22318;SDS011;11327;52.334;9.506;2022-09-01T21:50:15;1.42;;;0.50;;
22318;SDS011;11327;52.334;9.506;2022-09-01T21:53:37;2.35;;;0.60;;
22318;SDS011;11327;52.334;9.506;2022-09-01T21:56:58;1.92;;;0.60;;
22318;SDS011;11327;52.334;9.506;2022-09-01T22:00:21;2.22;;;0.57;;
22318;SDS011;11327;52.334;9.506;2022-09-01T22:03:44;0.62;;;0.50;;
22318;SDS011;11327;52.334;9.506;2022-09-01T22:07:05;0.95;;;0.50;;
22318;SDS011;11327;52.334;9.506;2022-09-01T22:10:29;1.67;;;0.55;;
22318;SDS011;11327;52.334;9.506;2022-09-01T22:13:51;1.00;;;0.60;;
22318;SDS011;11327;52.334;9.506;2022-09-01T22:17:12;0.82;;;0.53;;
22318;SDS011;11327;52.334;9.506;2022-09-01T22:20:33;0.75;;;0.60;;
22318;SDS011;11327;52.334;9.506;2022-09-01T22:23:54;1.55;;;0.60;;
22318;SDS011;11327;52.334;9.506;2022-09-01T22:27:16;3.00;;;0.70;;
22318;SDS011;11327;52.334;9.506;2022-09-01T22:30:42;1.52;;;0.60;;
22318;SDS011;11327;52.334;9.506;2022-09-01T22:34:05;1.52;;;0.53;;
22318;SDS011;11327;52.334;9.506;2022-09-01T22:37:26;1.02;;;0.70;;
22318;SDS011;11327;52.334;9.506;2022-09-01T22:40:49;2.77;;;0.60;;
22318;SDS011;11327;52.334;9.506;2022-09-01T22:44:14;1.63;;;0.73;;
22318;SDS011;11327;52.334;9.506;2022-09-01T22:47:35;1.80;;;0.50;;
22318;SDS011;11327;52.334;9.506;2022-09-01T22:50:57;2.25;;;0.68;;
22318;SDS011;11327;52.334;9.506;2022-09-01T22:54:18;2.70;;;0.70;;
22318;SDS011;11327;52.334;9.506;2022-09-01T22:57:39;0.95;;;0.65;;
22318;SDS011;11327;52.334;9.506;2022-09-01T23:01:00;1.77;;;0.70;;
22318;SDS011;11327;52.334;9.506;2022-09-01T23:04:22;2.92;;;0.88;;
22318;SDS011;11327;52.334;9.506;2022-09-01T23:07:43;1.72;;;0.90;;
22318;SDS011;11327;52.334;9.506;2022-09-01T23:11:05;1.47;;;0.80;;
22318;SDS011;11327;52.334;9.506;2022-09-01T23:14:26;3.02;;;0.90;;
22318;SDS011;11327;52.334;9.506;2022-09-01T23:17:48;0.72;;;0.68;;
22318;SDS011;11327;52.334;9.506;2022-09-01T23:21:10;2.98;;;0.70;;
22318;SDS011;11327;52.334;9.506;2022-09-01T23:24:33;1.98;;;0.70;;
22318;SDS011;11327;52.334;9.506;2022-09-01T23:27:54;1.80;;;0.75;;
22318;SDS011;11327;52.334;9.506;2022-09-01T23:31:16;3.02;;;0.70;;
22318;SDS011;11327;52.334;9.506;2022-09-01T23:34:39;0.78;;;0.65;;
22318;SDS011;11327;52.334;9.506;2022-09-01T23:38:01;1.15;;;0.75;;
22318;SDS011;11327;52.334;9.506;2022-09-01T23:41:23;0.93;;;0.70;;
22318;SDS011;11327;52.334;9.506;2022-09-01T23:44:48;1.73;;;0.70;;